sensor_id;sensor_type;location;lat;lon;timestamp;temperature;humidity
18974;DHT22;9621;48.690;9.466;2023-04-30T00:02:20;10.70;99.90
18974;DHT22;9621;48.690;9.466;2023-04-30T00:04:47;10.80;99.90
18974;DHT22;9621;48.690;9.466;2023-04-30T00:07:15;10.80;99.90
18974;DHT22;9621;48.690;9.466;2023-04-30T00:09:42;10.70;99.90
18974;DHT22;9621;48.690;9.466;2023-04-30T00:12:09;10.70;99.90
18974;DHT22;9621;48.690;9.466;2023-04-30T00:14:36;10.70;99.90
18974;DHT22;9621;48.690;9.466;2023-04-30T00:17:02;10.70;99.90
18974;DHT22;9621;48.690;9.466;2023-04-30T00:19:29;10.80;99.90
18974;DHT22;9621;48.690;9.466;2023-04-30T00:21:56;10.70;99.90
18974;DHT22;9621;48.690;9.466;2023-04-30T00:24:27;10.70;99.90
18974;DHT22;9621;48.690;9.466;2023-04-30T00:26:54;10.70;99.90
18974;DHT22;9621;48.690;9.466;2023-04-30T00:29:21;10.70;99.90
18974;DHT22;9621;48.690;9.466;2023-04-30T00:31:48;10.70;99.90
18974;DHT22;9621;48.690;9.466;2023-04-30T00:34:15;10.60;99.90
18974;DHT22;9621;48.690;9.466;2023-04-30T00:36:42;10.70;99.90
18974;DHT22;9621;48.690;9.466;2023-04-30T00:39:09;10.70;99.90
18974;DHT22;9621;48.690;9.466;2023-04-30T00:41:37;10.70;99.90
18974;DHT22;9621;48.690;9.466;2023-04-30T00:44:05;10.60;99.90
18974;DHT22;9621;48.690;9.466;2023-04-30T00:46:32;10.60;99.90
18974;DHT22;9621;48.690;9.466;2023-04-30T00:48:59;10.60;99.90
18974;DHT22;9621;48.690;9.466;2023-04-30T00:51:30;10.50;99.90
18974;DHT22;9621;48.690;9.466;2023-04-30T00:53:58;10.60;99.90
18974;DHT22;9621;48.690;9.466;2023-04-30T00:56:26;10.50;99.90
18974;DHT22;9621;48.690;9.466;2023-04-30T00:58:55;10.50;99.90
18974;DHT22;9621;48.690;9.466;2023-04-30T01:01:22;10.40;99.90
18974;DHT22;9621;48.690;9.466;2023-04-30T01:03:50;10.50;99.90
18974;DHT22;9621;48.690;9.466;2023-04-30T01:06:17;10.40;99.90
18974;DHT22;9621;48.690;9.466;2023-04-30T01:08:44;10.40;99.90
18974;DHT22;9621;48.690;9.466;2023-04-30T01:11:18;10.40;99.90
18974;DHT22;9621;48.690;9.466;2023-04-30T01:13:54;10.40;99.90
18974;DHT22;9621;48.690;9.466;2023-04-30T01:16:26;10.30;99.90
18974;DHT22;9621;48.690;9.466;2023-04-30T01:18:57;10.30;99.90
18974;DHT22;9621;48.690;9.466;2023-04-30T01:21:27;10.20;99.90
18974;DHT22;9621;48.690;9.466;2023-04-30T01:24:17;10.20;99.90
18974;DHT22;9621;48.690;9.466;2023-04-30T01:26:59;10.20;99.90
18974;DHT22;9621;48.690;9.466;2023-04-30T01:29:32;10.20;99.90
18974;DHT22;9621;48.690;9.466;2023-04-30T01:32:00;10.20;99.90
18974;DHT22;9621;48.690;9.466;2023-04-30T01:34:28;10.10;99.90
18974;DHT22;9621;48.690;9.466;2023-04-30T01:37:05;10.10;99.90
18974;DHT22;9621;48.690;9.466;2023-04-30T01:39:47;10.10;99.90
18974;DHT22;9621;48.690;9.466;2023-04-30T01:42:20;10.10;99.90
18974;DHT22;9621;48.690;9.466;2023-04-30T01:48:21;10.10;99.90
18974;DHT22;9621;48.690;9.466;2023-04-30T01:50:55;10.10;99.90
18974;DHT22;9621;48.690;9.466;2023-04-30T01:53:31;10.10;99.90
18974;DHT22;9621;48.690;9.466;2023-04-30T01:56:01;10.00;99.90
18974;DHT22;9621;48.690;9.466;2023-04-30T01:58:31;10.00;99.90
18974;DHT22;9621;48.690;9.466;2023-04-30T02:00:58;10.00;99.90
18974;DHT22;9621;48.690;9.466;2023-04-30T02:03:26;10.00;99.90
18974;DHT22;9621;48.690;9.466;2023-04-30T02:05:54;9.90;99.90
18974;DHT22;9621;48.690;9.466;2023-04-30T02:08:21;9.90;99.90
18974;DHT22;9621;48.690;9.466;2023-04-30T02:10:48;9.90;99.90
18974;DHT22;9621;48.690;9.466;2023-04-30T02:13:14;9.90;99.90
18974;DHT22;9621;48.690;9.466;2023-04-30T02:15:41;9.90;99.90
18974;DHT22;9621;48.690;9.466;2023-04-30T02:18:08;9.90;99.90
18974;DHT22;9621;48.690;9.466;2023-04-30T02:20:36;9.80;99.90
18974;DHT22;9621;48.690;9.466;2023-04-30T02:23:03;9.80;99.90
18974;DHT22;9621;48.690;9.466;2023-04-30T02:25:30;9.80;99.90
18974;DHT22;9621;48.690;9.466;2023-04-30T02:28:02;9.90;99.90
18974;DHT22;9621;48.690;9.466;2023-04-30T02:30:29;9.80;99.90
18974;DHT22;9621;48.690;9.466;2023-04-30T02:32:56;9.70;99.90
18974;DHT22;9621;48.690;9.466;2023-04-30T02:35:23;9.80;99.90
18974;DHT22;9621;48.690;9.466;2023-04-30T02:37:51;9.70;99.90
18974;DHT22;9621;48.690;9.466;2023-04-30T02:40:18;9.60;99.90
18974;DHT22;9621;48.690;9.466;2023-04-30T02:42:45;9.60;99.90
18974;DHT22;9621;48.690;9.466;2023-04-30T02:45:12;9.60;99.90
18974;DHT22;9621;48.690;9.466;2023-04-30T02:47:39;9.60;99.90
18974;DHT22;9621;48.690;9.466;2023-04-30T02:50:07;9.60;99.90
18974;DHT22;9621;48.690;9.466;2023-04-30T02:52:34;9.60;99.90
18974;DHT22;9621;48.690;9.466;2023-04-30T02:55:02;9.50;99.90
18974;DHT22;9621;48.690;9.466;2023-04-30T02:57:30;9.60;99.90
18974;DHT22;9621;48.690;9.466;2023-04-30T02:59:56;9.60;99.90
18974;DHT22;9621;48.690;9.466;2023-04-30T03:02:23;9.50;99.90
18974;DHT22;9621;48.690;9.466;2023-04-30T03:04:50;9.60;99.90
18974;DHT22;9621;48.690;9.466;2023-04-30T03:07:17;9.50;99.90
18974;DHT22;9621;48.690;9.466;2023-04-30T03:09:45;9.50;99.90
18974;DHT22;9621;48.690;9.466;2023-04-30T03:12:13;9.50;99.90
18974;DHT22;9621;48.690;9.466;2023-04-30T03:14:40;9.50;99.90
18974;DHT22;9621;48.690;9.466;2023-04-30T03:17:07;9.40;99.90
18974;DHT22;9621;48.690;9.466;2023-04-30T03:19:34;9.40;99.90
18974;DHT22;9621;48.690;9.466;2023-04-30T03:22:01;9.40;99.90
18974;DHT22;9621;48.690;9.466;2023-04-30T03:24:28;9.30;99.90
18974;DHT22;9621;48.690;9.466;2023-04-30T03:26:55;9.30;99.90
18974;DHT22;9621;48.690;9.466;2023-04-30T03:29:23;9.20;99.90
18974;DHT22;9621;48.690;9.466;2023-04-30T03:31:51;9.30;99.90
18974;DHT22;9621;48.690;9.466;2023-04-30T03:34:18;9.10;99.90
18974;DHT22;9621;48.690;9.466;2023-04-30T03:36:44;9.20;99.90
18974;DHT22;9621;48.690;9.466;2023-04-30T03:39:11;9.10;99.90
18974;DHT22;9621;48.690;9.466;2023-04-30T03:41:38;8.90;99.90
18974;DHT22;9621;48.690;9.466;2023-04-30T03:44:06;8.90;99.90
18974;DHT22;9621;48.690;9.466;2023-04-30T03:46:41;8.80;99.90
18974;DHT22;9621;48.690;9.466;2023-04-30T03:49:08;8.80;99.90
18974;DHT22;9621;48.690;9.466;2023-04-30T03:51:36;8.70;99.90
18974;DHT22;9621;48.690;9.466;2023-04-30T03:54:06;8.70;99.90
18974;DHT22;9621;48.690;9.466;2023-04-30T03:56:34;8.60;99.90
18974;DHT22;9621;48.690;9.466;2023-04-30T03:59:01;8.50;99.90
18974;DHT22;9621;48.690;9.466;2023-04-30T04:01:28;8.60;99.90
18974;DHT22;9621;48.690;9.466;2023-04-30T04:03:57;8.50;99.90
18974;DHT22;9621;48.690;9.466;2023-04-30T04:06:24;8.40;99.90
18974;DHT22;9621;48.690;9.466;2023-04-30T04:08:51;8.50;99.90
18974;DHT22;9621;48.690;9.466;2023-04-30T04:11:18;8.30;99.90
18974;DHT22;9621;48.690;9.466;2023-04-30T04:13:45;8.30;99.90
18974;DHT22;9621;48.690;9.466;2023-04-30T04:16:13;8.20;99.90
18974;DHT22;9621;48.690;9.466;2023-04-30T04:18:40;8.20;99.90
18974;DHT22;9621;48.690;9.466;2023-04-30T04:21:08;8.10;99.90
18974;DHT22;9621;48.690;9.466;2023-04-30T04:23:35;8.20;99.90
18974;DHT22;9621;48.690;9.466;2023-04-30T04:26:02;8.20;99.90
18974;DHT22;9621;48.690;9.466;2023-04-30T04:28:29;8.40;99.90
18974;DHT22;9621;48.690;9.466;2023-04-30T04:30:56;8.10;99.90
18974;DHT22;9621;48.690;9.466;2023-04-30T04:33:24;8.10;99.90
18974;DHT22;9621;48.690;9.466;2023-04-30T04:35:51;8.00;99.90
18974;DHT22;9621;48.690;9.466;2023-04-30T04:38:19;8.10;99.90
18974;DHT22;9621;48.690;9.466;2023-04-30T04:40:52;8.00;99.90
18974;DHT22;9621;48.690;9.466;2023-04-30T04:43:20;8.00;99.90
18974;DHT22;9621;48.690;9.466;2023-04-30T04:45:47;8.00;99.90
18974;DHT22;9621;48.690;9.466;2023-04-30T04:48:14;8.00;99.90
18974;DHT22;9621;48.690;9.466;2023-04-30T04:50:41;7.90;99.90
18974;DHT22;9621;48.690;9.466;2023-04-30T04:53:08;8.00;99.90
18974;DHT22;9621;48.690;9.466;2023-04-30T04:55:36;8.00;99.90
18974;DHT22;9621;48.690;9.466;2023-04-30T04:58:04;8.00;99.90
18974;DHT22;9621;48.690;9.466;2023-04-30T05:00:31;8.00;99.90
18974;DHT22;9621;48.690;9.466;2023-04-30T05:02:58;8.00;99.90
18974;DHT22;9621;48.690;9.466;2023-04-30T05:05:25;8.10;99.90
18974;DHT22;9621;48.690;9.466;2023-04-30T05:07:52;8.10;99.90
18974;DHT22;9621;48.690;9.466;2023-04-30T05:10:19;8.10;99.90
18974;DHT22;9621;48.690;9.466;2023-04-30T05:12:47;8.20;99.90
18974;DHT22;9621;48.690;9.466;2023-04-30T05:15:14;8.20;99.90
18974;DHT22;9621;48.690;9.466;2023-04-30T05:17:41;8.30;99.90
18974;DHT22;9621;48.690;9.466;2023-04-30T05:20:10;8.30;99.90
18974;DHT22;9621;48.690;9.466;2023-04-30T05:22:37;8.40;99.90
18974;DHT22;9621;48.690;9.466;2023-04-30T05:25:04;8.50;99.90
18974;DHT22;9621;48.690;9.466;2023-04-30T05:27:32;8.50;99.90
18974;DHT22;9621;48.690;9.466;2023-04-30T05:30:00;8.70;99.90
18974;DHT22;9621;48.690;9.466;2023-04-30T05:32:27;8.70;99.90
18974;DHT22;9621;48.690;9.466;2023-04-30T05:34:55;8.80;99.90
18974;DHT22;9621;48.690;9.466;2023-04-30T05:37:22;8.90;99.90
18974;DHT22;9621;48.690;9.466;2023-04-30T05:39:49;9.00;99.90
18974;DHT22;9621;48.690;9.466;2023-04-30T05:42:18;9.10;99.90
18974;DHT22;9621;48.690;9.466;2023-04-30T05:44:45;9.20;99.90
18974;DHT22;9621;48.690;9.466;2023-04-30T05:47:13;9.30;99.90
18974;DHT22;9621;48.690;9.466;2023-04-30T05:49:40;9.40;99.90
18974;DHT22;9621;48.690;9.466;2023-04-30T05:52:07;9.50;99.90
18974;DHT22;9621;48.690;9.466;2023-04-30T05:54:34;9.80;99.90
18974;DHT22;9621;48.690;9.466;2023-04-30T05:57:01;9.70;99.90
18974;DHT22;9621;48.690;9.466;2023-04-30T05:59:28;9.80;99.90
18974;DHT22;9621;48.690;9.466;2023-04-30T06:01:55;9.90;99.90
18974;DHT22;9621;48.690;9.466;2023-04-30T06:04:24;9.90;99.90
18974;DHT22;9621;48.690;9.466;2023-04-30T06:06:51;10.10;99.90
18974;DHT22;9621;48.690;9.466;2023-04-30T06:09:18;10.30;99.90
18974;DHT22;9621;48.690;9.466;2023-04-30T06:11:45;10.20;99.90
18974;DHT22;9621;48.690;9.466;2023-04-30T06:14:15;10.30;99.90
18974;DHT22;9621;48.690;9.466;2023-04-30T06:16:42;10.40;99.90
18974;DHT22;9621;48.690;9.466;2023-04-30T06:19:12;10.50;99.90
18974;DHT22;9621;48.690;9.466;2023-04-30T06:21:41;10.70;99.90
18974;DHT22;9621;48.690;9.466;2023-04-30T06:24:09;10.80;99.90
18974;DHT22;9621;48.690;9.466;2023-04-30T06:26:36;10.90;99.90
18974;DHT22;9621;48.690;9.466;2023-04-30T06:29:03;11.00;99.90
18974;DHT22;9621;48.690;9.466;2023-04-30T06:31:30;11.10;99.90
18974;DHT22;9621;48.690;9.466;2023-04-30T06:33:57;11.30;99.90
18974;DHT22;9621;48.690;9.466;2023-04-30T06:36:24;11.40;99.90
18974;DHT22;9621;48.690;9.466;2023-04-30T06:38:52;11.50;99.90
18974;DHT22;9621;48.690;9.466;2023-04-30T06:41:19;11.50;99.90
18974;DHT22;9621;48.690;9.466;2023-04-30T06:43:46;11.60;99.90
18974;DHT22;9621;48.690;9.466;2023-04-30T06:46:14;11.70;99.90
18974;DHT22;9621;48.690;9.466;2023-04-30T06:48:41;11.80;99.90
18974;DHT22;9621;48.690;9.466;2023-04-30T06:51:08;12.00;99.90
18974;DHT22;9621;48.690;9.466;2023-04-30T06:53:35;12.00;99.90
18974;DHT22;9621;48.690;9.466;2023-04-30T06:56:03;12.10;99.90
18974;DHT22;9621;48.690;9.466;2023-04-30T06:58:31;12.20;99.90
18974;DHT22;9621;48.690;9.466;2023-04-30T07:00:58;12.30;99.90
18974;DHT22;9621;48.690;9.466;2023-04-30T07:03:25;12.30;99.90
18974;DHT22;9621;48.690;9.466;2023-04-30T07:05:52;12.40;99.90
18974;DHT22;9621;48.690;9.466;2023-04-30T07:08:19;12.40;99.90
18974;DHT22;9621;48.690;9.466;2023-04-30T07:10:46;12.50;99.90
18974;DHT22;9621;48.690;9.466;2023-04-30T07:13:15;12.60;99.90
18974;DHT22;9621;48.690;9.466;2023-04-30T07:15:42;12.60;99.90
18974;DHT22;9621;48.690;9.466;2023-04-30T07:18:09;12.70;99.90
18974;DHT22;9621;48.690;9.466;2023-04-30T07:20:36;12.80;99.90
18974;DHT22;9621;48.690;9.466;2023-04-30T07:23:03;12.80;99.90
18974;DHT22;9621;48.690;9.466;2023-04-30T07:25:30;13.00;99.90
18974;DHT22;9621;48.690;9.466;2023-04-30T07:27:57;13.10;99.90
18974;DHT22;9621;48.690;9.466;2023-04-30T07:30:25;13.10;99.90
18974;DHT22;9621;48.690;9.466;2023-04-30T07:32:52;13.20;99.90
18974;DHT22;9621;48.690;9.466;2023-04-30T07:35:19;13.30;99.90
18974;DHT22;9621;48.690;9.466;2023-04-30T07:37:46;13.40;99.90
18974;DHT22;9621;48.690;9.466;2023-04-30T07:40:13;13.50;99.90
18974;DHT22;9621;48.690;9.466;2023-04-30T07:42:40;13.60;99.90
18974;DHT22;9621;48.690;9.466;2023-04-30T07:45:08;13.70;99.90
18974;DHT22;9621;48.690;9.466;2023-04-30T07:47:37;13.80;99.90
18974;DHT22;9621;48.690;9.466;2023-04-30T07:50:04;13.80;99.90
18974;DHT22;9621;48.690;9.466;2023-04-30T07:52:31;13.90;99.90
18974;DHT22;9621;48.690;9.466;2023-04-30T07:54:59;13.90;99.90
18974;DHT22;9621;48.690;9.466;2023-04-30T07:57:26;14.00;99.90
18974;DHT22;9621;48.690;9.466;2023-04-30T07:59:53;14.10;99.90
18974;DHT22;9621;48.690;9.466;2023-04-30T08:02:20;14.20;99.90
18974;DHT22;9621;48.690;9.466;2023-04-30T08:04:48;14.20;99.90
18974;DHT22;9621;48.690;9.466;2023-04-30T08:07:16;14.30;99.90
18974;DHT22;9621;48.690;9.466;2023-04-30T08:09:43;14.30;99.90
18974;DHT22;9621;48.690;9.466;2023-04-30T08:12:09;14.30;99.90
18974;DHT22;9621;48.690;9.466;2023-04-30T08:14:36;14.30;99.90
18974;DHT22;9621;48.690;9.466;2023-04-30T08:17:03;14.40;99.90
18974;DHT22;9621;48.690;9.466;2023-04-30T08:19:30;14.30;99.90
18974;DHT22;9621;48.690;9.466;2023-04-30T08:21:59;14.40;99.90
18974;DHT22;9621;48.690;9.466;2023-04-30T08:24:26;14.30;99.90
18974;DHT22;9621;48.690;9.466;2023-04-30T08:26:53;14.30;99.90
18974;DHT22;9621;48.690;9.466;2023-04-30T08:29:20;14.20;99.90
18974;DHT22;9621;48.690;9.466;2023-04-30T08:31:47;14.20;99.90
18974;DHT22;9621;48.690;9.466;2023-04-30T08:34:13;14.20;99.90
18974;DHT22;9621;48.690;9.466;2023-04-30T08:36:40;14.20;99.90
18974;DHT22;9621;48.690;9.466;2023-04-30T08:39:09;14.20;99.90
18974;DHT22;9621;48.690;9.466;2023-04-30T08:41:38;14.30;99.90
18974;DHT22;9621;48.690;9.466;2023-04-30T08:44:10;14.30;99.90
18974;DHT22;9621;48.690;9.466;2023-04-30T08:46:38;14.40;99.90
18974;DHT22;9621;48.690;9.466;2023-04-30T08:49:05;14.50;99.90
18974;DHT22;9621;48.690;9.466;2023-04-30T08:51:33;14.50;99.90
18974;DHT22;9621;48.690;9.466;2023-04-30T08:54:00;14.50;99.90
18974;DHT22;9621;48.690;9.466;2023-04-30T08:56:29;14.50;99.90
18974;DHT22;9621;48.690;9.466;2023-04-30T08:58:58;14.40;99.90
18974;DHT22;9621;48.690;9.466;2023-04-30T09:01:27;14.40;99.90
18974;DHT22;9621;48.690;9.466;2023-04-30T09:03:54;14.40;99.90
18974;DHT22;9621;48.690;9.466;2023-04-30T09:06:21;14.40;99.90
18974;DHT22;9621;48.690;9.466;2023-04-30T09:08:48;14.40;99.90
18974;DHT22;9621;48.690;9.466;2023-04-30T09:11:23;14.30;99.90
18974;DHT22;9621;48.690;9.466;2023-04-30T09:13:53;14.30;99.90
18974;DHT22;9621;48.690;9.466;2023-04-30T09:16:22;14.30;99.90
18974;DHT22;9621;48.690;9.466;2023-04-30T09:18:50;14.30;99.90
18974;DHT22;9621;48.690;9.466;2023-04-30T09:21:27;14.30;99.90
18974;DHT22;9621;48.690;9.466;2023-04-30T09:23:56;14.30;99.90
18974;DHT22;9621;48.690;9.466;2023-04-30T09:26:30;14.30;99.90
18974;DHT22;9621;48.690;9.466;2023-04-30T09:28:59;14.30;99.90
18974;DHT22;9621;48.690;9.466;2023-04-30T09:31:32;14.30;99.90
18974;DHT22;9621;48.690;9.466;2023-04-30T09:33:59;14.30;99.90
18974;DHT22;9621;48.690;9.466;2023-04-30T09:36:26;14.30;99.90
18974;DHT22;9621;48.690;9.466;2023-04-30T09:38:54;14.30;99.90
18974;DHT22;9621;48.690;9.466;2023-04-30T09:41:22;14.40;99.90
18974;DHT22;9621;48.690;9.466;2023-04-30T09:43:51;14.40;99.90
18974;DHT22;9621;48.690;9.466;2023-04-30T09:46:20;14.40;99.90
18974;DHT22;9621;48.690;9.466;2023-04-30T09:48:55;14.50;99.90
18974;DHT22;9621;48.690;9.466;2023-04-30T09:51:22;14.50;99.90
18974;DHT22;9621;48.690;9.466;2023-04-30T09:53:50;14.60;99.90
18974;DHT22;9621;48.690;9.466;2023-04-30T09:56:20;14.70;99.90
18974;DHT22;9621;48.690;9.466;2023-04-30T09:58:50;14.80;99.90
18974;DHT22;9621;48.690;9.466;2023-04-30T10:01:20;14.90;99.90
18974;DHT22;9621;48.690;9.466;2023-04-30T10:03:48;15.00;99.90
18974;DHT22;9621;48.690;9.466;2023-04-30T10:06:15;15.10;99.90
18974;DHT22;9621;48.690;9.466;2023-04-30T10:08:47;15.20;99.90
18974;DHT22;9621;48.690;9.466;2023-04-30T10:11:17;15.40;99.90
18974;DHT22;9621;48.690;9.466;2023-04-30T10:13:49;15.40;99.90
18974;DHT22;9621;48.690;9.466;2023-04-30T10:16:26;15.60;99.90
18974;DHT22;9621;48.690;9.466;2023-04-30T10:18:58;15.60;99.90
18974;DHT22;9621;48.690;9.466;2023-04-30T10:21:29;15.60;99.90
18974;DHT22;9621;48.690;9.466;2023-04-30T10:23:59;15.60;99.90
18974;DHT22;9621;48.690;9.466;2023-04-30T10:26:27;15.70;99.90
18974;DHT22;9621;48.690;9.466;2023-04-30T10:28:55;15.70;99.90
18974;DHT22;9621;48.690;9.466;2023-04-30T10:31:27;15.80;99.90
18974;DHT22;9621;48.690;9.466;2023-04-30T10:34:02;15.90;99.90
18974;DHT22;9621;48.690;9.466;2023-04-30T10:36:36;16.00;99.90
18974;DHT22;9621;48.690;9.466;2023-04-30T10:39:06;16.00;99.90
18974;DHT22;9621;48.690;9.466;2023-04-30T10:41:33;15.90;99.90
18974;DHT22;9621;48.690;9.466;2023-04-30T10:44:01;15.80;99.90
18974;DHT22;9621;48.690;9.466;2023-04-30T10:46:33;15.70;99.90
18974;DHT22;9621;48.690;9.466;2023-04-30T10:49:01;15.60;99.90
18974;DHT22;9621;48.690;9.466;2023-04-30T10:51:43;15.60;99.90
18974;DHT22;9621;48.690;9.466;2023-04-30T10:54:10;15.50;99.90
18974;DHT22;9621;48.690;9.466;2023-04-30T10:56:39;15.40;99.90
18974;DHT22;9621;48.690;9.466;2023-04-30T10:59:08;15.40;99.90
18974;DHT22;9621;48.690;9.466;2023-04-30T11:01:54;15.40;99.90
18974;DHT22;9621;48.690;9.466;2023-04-30T11:04:22;15.40;99.90
18974;DHT22;9621;48.690;9.466;2023-04-30T11:09:39;15.40;99.90
18974;DHT22;9621;48.690;9.466;2023-04-30T11:12:13;15.50;99.90
18974;DHT22;9621;48.690;9.466;2023-04-30T11:14:41;15.50;99.90
18974;DHT22;9621;48.690;9.466;2023-04-30T11:17:11;15.60;99.90
18974;DHT22;9621;48.690;9.466;2023-04-30T11:19:46;15.60;99.90
18974;DHT22;9621;48.690;9.466;2023-04-30T11:22:19;15.70;99.90
18974;DHT22;9621;48.690;9.466;2023-04-30T11:24:55;15.70;99.90
18974;DHT22;9621;48.690;9.466;2023-04-30T11:27:27;15.70;99.90
18974;DHT22;9621;48.690;9.466;2023-04-30T11:29:56;15.70;99.90
18974;DHT22;9621;48.690;9.466;2023-04-30T11:32:26;15.80;99.90
18974;DHT22;9621;48.690;9.466;2023-04-30T11:34:57;15.80;99.90
18974;DHT22;9621;48.690;9.466;2023-04-30T11:37:30;15.90;99.90
18974;DHT22;9621;48.690;9.466;2023-04-30T11:40:00;16.00;99.90
18974;DHT22;9621;48.690;9.466;2023-04-30T11:42:28;16.00;99.90
18974;DHT22;9621;48.690;9.466;2023-04-30T11:45:06;16.10;99.90
18974;DHT22;9621;48.690;9.466;2023-04-30T11:47:43;16.10;99.90
18974;DHT22;9621;48.690;9.466;2023-04-30T11:50:12;16.10;99.90
18974;DHT22;9621;48.690;9.466;2023-04-30T11:52:40;16.20;99.90
18974;DHT22;9621;48.690;9.466;2023-04-30T11:55:11;16.30;99.90
18974;DHT22;9621;48.690;9.466;2023-04-30T11:57:40;16.40;99.90
18974;DHT22;9621;48.690;9.466;2023-04-30T12:00:10;16.40;99.90
18974;DHT22;9621;48.690;9.466;2023-04-30T12:02:37;16.50;99.90
18974;DHT22;9621;48.690;9.466;2023-04-30T12:05:11;16.50;99.90
18974;DHT22;9621;48.690;9.466;2023-04-30T12:07:44;16.50;99.90
18974;DHT22;9621;48.690;9.466;2023-04-30T12:10:12;16.50;99.90
18974;DHT22;9621;48.690;9.466;2023-04-30T12:12:41;16.40;99.90
18974;DHT22;9621;48.690;9.466;2023-04-30T12:15:13;16.40;99.90
18974;DHT22;9621;48.690;9.466;2023-04-30T12:17:40;16.30;99.90
18974;DHT22;9621;48.690;9.466;2023-04-30T12:20:11;16.40;99.90
18974;DHT22;9621;48.690;9.466;2023-04-30T12:22:39;16.40;99.90
18974;DHT22;9621;48.690;9.466;2023-04-30T12:25:10;16.60;99.90
18974;DHT22;9621;48.690;9.466;2023-04-30T12:27:39;16.70;99.90
18974;DHT22;9621;48.690;9.466;2023-04-30T12:30:07;16.90;99.90
18974;DHT22;9621;48.690;9.466;2023-04-30T12:32:39;17.00;99.90
18974;DHT22;9621;48.690;9.466;2023-04-30T12:35:15;17.20;99.90
18974;DHT22;9621;48.690;9.466;2023-04-30T12:37:43;17.30;99.90
18974;DHT22;9621;48.690;9.466;2023-04-30T12:40:11;17.30;99.90
18974;DHT22;9621;48.690;9.466;2023-04-30T12:42:38;17.40;99.90
18974;DHT22;9621;48.690;9.466;2023-04-30T12:45:06;17.40;99.90
18974;DHT22;9621;48.690;9.466;2023-04-30T12:47:37;17.40;99.90
18974;DHT22;9621;48.690;9.466;2023-04-30T12:50:09;17.40;99.90
18974;DHT22;9621;48.690;9.466;2023-04-30T12:52:38;17.40;99.90
18974;DHT22;9621;48.690;9.466;2023-04-30T12:55:16;17.50;99.90
18974;DHT22;9621;48.690;9.466;2023-04-30T12:58:05;17.50;99.90
18974;DHT22;9621;48.690;9.466;2023-04-30T13:00:48;17.60;99.90
18974;DHT22;9621;48.690;9.466;2023-04-30T13:03:16;17.60;99.90
18974;DHT22;9621;48.690;9.466;2023-04-30T13:05:49;17.60;99.90
18974;DHT22;9621;48.690;9.466;2023-04-30T13:08:17;17.60;99.90
18974;DHT22;9621;48.690;9.466;2023-04-30T13:10:45;17.60;99.90
18974;DHT22;9621;48.690;9.466;2023-04-30T13:13:14;17.60;99.90
18974;DHT22;9621;48.690;9.466;2023-04-30T13:15:41;17.60;99.90
18974;DHT22;9621;48.690;9.466;2023-04-30T13:18:08;17.60;99.90
18974;DHT22;9621;48.690;9.466;2023-04-30T13:20:35;17.60;99.90
18974;DHT22;9621;48.690;9.466;2023-04-30T13:23:04;17.60;99.90
18974;DHT22;9621;48.690;9.466;2023-04-30T13:25:32;17.60;99.90
18974;DHT22;9621;48.690;9.466;2023-04-30T13:27:59;17.60;99.90
18974;DHT22;9621;48.690;9.466;2023-04-30T13:30:26;17.60;99.90
18974;DHT22;9621;48.690;9.466;2023-04-30T13:32:53;17.60;99.90
18974;DHT22;9621;48.690;9.466;2023-04-30T13:35:20;17.50;99.90
18974;DHT22;9621;48.690;9.466;2023-04-30T13:37:47;17.50;99.90
18974;DHT22;9621;48.690;9.466;2023-04-30T13:40:18;17.50;99.90
18974;DHT22;9621;48.690;9.466;2023-04-30T13:42:47;17.50;99.90
18974;DHT22;9621;48.690;9.466;2023-04-30T13:45:14;17.60;99.90
18974;DHT22;9621;48.690;9.466;2023-04-30T13:47:41;17.60;99.90
18974;DHT22;9621;48.690;9.466;2023-04-30T13:50:09;17.60;99.90
18974;DHT22;9621;48.690;9.466;2023-04-30T13:52:36;17.60;99.90
18974;DHT22;9621;48.690;9.466;2023-04-30T13:55:03;17.50;99.90
18974;DHT22;9621;48.690;9.466;2023-04-30T13:57:32;17.60;99.90
18974;DHT22;9621;48.690;9.466;2023-04-30T13:59:59;17.60;99.90
18974;DHT22;9621;48.690;9.466;2023-04-30T14:02:26;17.70;99.90
18974;DHT22;9621;48.690;9.466;2023-04-30T14:04:53;17.80;99.90
18974;DHT22;9621;48.690;9.466;2023-04-30T14:07:20;17.80;99.90
18974;DHT22;9621;48.690;9.466;2023-04-30T14:09:48;17.90;99.90
18974;DHT22;9621;48.690;9.466;2023-04-30T14:12:15;17.90;99.90
18974;DHT22;9621;48.690;9.466;2023-04-30T14:14:44;17.90;99.90
18974;DHT22;9621;48.690;9.466;2023-04-30T14:17:11;17.80;99.90
18974;DHT22;9621;48.690;9.466;2023-04-30T14:19:38;17.80;99.90
18974;DHT22;9621;48.690;9.466;2023-04-30T14:22:04;17.70;99.90
18974;DHT22;9621;48.690;9.466;2023-04-30T14:24:31;17.60;99.90
18974;DHT22;9621;48.690;9.466;2023-04-30T14:26:59;17.40;99.90
18974;DHT22;9621;48.690;9.466;2023-04-30T14:29:28;17.30;99.90
18974;DHT22;9621;48.690;9.466;2023-04-30T14:31:56;17.20;99.90
18974;DHT22;9621;48.690;9.466;2023-04-30T14:34:23;17.20;99.90
18974;DHT22;9621;48.690;9.466;2023-04-30T14:36:52;17.10;99.90
18974;DHT22;9621;48.690;9.466;2023-04-30T14:39:18;17.00;99.90
18974;DHT22;9621;48.690;9.466;2023-04-30T14:41:45;17.00;99.90
18974;DHT22;9621;48.690;9.466;2023-04-30T14:44:12;16.90;99.90
18974;DHT22;9621;48.690;9.466;2023-04-30T14:46:39;16.80;99.90
18974;DHT22;9621;48.690;9.466;2023-04-30T14:49:07;16.80;99.90
18974;DHT22;9621;48.690;9.466;2023-04-30T14:51:34;16.70;99.90
18974;DHT22;9621;48.690;9.466;2023-04-30T14:54:01;16.70;99.90
18974;DHT22;9621;48.690;9.466;2023-04-30T14:56:28;16.70;99.90
18974;DHT22;9621;48.690;9.466;2023-04-30T14:58:55;16.60;99.90
18974;DHT22;9621;48.690;9.466;2023-04-30T15:01:23;16.60;99.90
18974;DHT22;9621;48.690;9.466;2023-04-30T15:03:50;16.60;99.90
18974;DHT22;9621;48.690;9.466;2023-04-30T15:06:19;16.50;99.90
18974;DHT22;9621;48.690;9.466;2023-04-30T15:08:46;16.50;99.90
18974;DHT22;9621;48.690;9.466;2023-04-30T15:11:12;16.50;99.90
18974;DHT22;9621;48.690;9.466;2023-04-30T15:13:40;16.40;99.90
18974;DHT22;9621;48.690;9.466;2023-04-30T15:16:07;16.40;99.90
18974;DHT22;9621;48.690;9.466;2023-04-30T15:18:34;16.40;99.90
18974;DHT22;9621;48.690;9.466;2023-04-30T15:21:01;16.40;99.90
18974;DHT22;9621;48.690;9.466;2023-04-30T15:23:30;16.30;99.90
18974;DHT22;9621;48.690;9.466;2023-04-30T15:25:58;16.30;99.90
18974;DHT22;9621;48.690;9.466;2023-04-30T15:28:25;16.30;99.90
18974;DHT22;9621;48.690;9.466;2023-04-30T15:30:53;16.20;99.90
18974;DHT22;9621;48.690;9.466;2023-04-30T15:33:23;16.10;99.90
18974;DHT22;9621;48.690;9.466;2023-04-30T15:35:53;16.10;99.90
18974;DHT22;9621;48.690;9.466;2023-04-30T15:38:20;16.10;99.90
18974;DHT22;9621;48.690;9.466;2023-04-30T15:40:48;16.00;99.90
18974;DHT22;9621;48.690;9.466;2023-04-30T15:43:15;16.00;99.90
18974;DHT22;9621;48.690;9.466;2023-04-30T15:45:43;15.90;99.90
18974;DHT22;9621;48.690;9.466;2023-04-30T15:48:12;15.90;99.90
18974;DHT22;9621;48.690;9.466;2023-04-30T15:50:39;15.90;99.90
18974;DHT22;9621;48.690;9.466;2023-04-30T15:53:14;15.90;99.90
18974;DHT22;9621;48.690;9.466;2023-04-30T15:55:41;15.80;99.90
18974;DHT22;9621;48.690;9.466;2023-04-30T15:58:10;15.80;99.90
18974;DHT22;9621;48.690;9.466;2023-04-30T16:00:37;15.80;99.90
18974;DHT22;9621;48.690;9.466;2023-04-30T16:03:04;15.90;99.90
18974;DHT22;9621;48.690;9.466;2023-04-30T16:05:31;15.90;99.90